createdAt,value
2019-01-13T00:01:58.159Z,92.83
2019-01-13T00:04:47.962Z,92.83
2019-01-13T00:07:38.509Z,92.90
2019-01-13T00:10:28.684Z,92.80
2019-01-13T00:13:18.635Z,92.86
2019-01-13T00:16:08.520Z,92.99
2019-01-13T00:18:58.212Z,92.83
2019-01-13T00:21:47.917Z,92.91
2019-01-13T00:24:37.707Z,92.83
2019-01-13T00:27:46.359Z,92.75
2019-01-13T00:30:55.266Z,92.76
2019-01-13T00:33:45.609Z,92.76
2019-01-13T00:36:35.388Z,92.52
2019-01-13T00:39:26.715Z,92.65
2019-01-13T00:42:16.403Z,92.71
2019-01-13T00:45:07.096Z,92.92
2019-01-13T00:47:56.845Z,93.03
2019-01-13T00:50:46.360Z,92.87
2019-01-13T00:53:55.577Z,92.57
2019-01-13T00:56:45.978Z,92.58
2019-01-13T00:59:35.962Z,92.58
2019-01-13T01:02:26.150Z,92.69
2019-01-13T01:05:55.492Z,92.77
2019-01-13T01:08:45.149Z,92.45
2019-01-13T01:11:35.220Z,92.27
2019-01-13T01:14:24.820Z,92.28
2019-01-13T01:17:15.402Z,92.39
2019-01-13T01:20:44.866Z,92.36
2019-01-13T01:23:55.890Z,91.96
2019-01-13T01:26:45.424Z,91.96
2019-01-13T01:29:54.318Z,91.83
2019-01-13T01:32:44.108Z,91.83
2019-01-13T01:35:34.356Z,92.22
2019-01-13T01:38:24.079Z,92.31
2019-01-13T01:41:13.920Z,92.31
2019-01-13T01:44:03.611Z,92.45
2019-01-13T01:46:53.380Z,92.45
2019-01-13T01:49:43.265Z,92.27
2019-01-13T01:52:32.844Z,92.31
2019-01-13T01:55:22.344Z,92.35
2019-01-13T01:58:12.802Z,92.52
2019-01-13T02:01:02.701Z,92.45
2019-01-13T02:03:52.653Z,92.56
2019-01-13T02:06:42.763Z,92.52
2019-01-13T02:09:32.453Z,92.33
2019-01-13T02:12:22.427Z,92.26
2019-01-13T02:15:15.815Z,92.30
2019-01-13T02:18:06.378Z,92.41
2019-01-13T02:20:56.337Z,92.24
2019-01-13T02:23:46.484Z,92.09
2019-01-13T02:26:35.986Z,92.27
2019-01-13T02:29:44.668Z,91.93
2019-01-13T02:32:34.333Z,91.93
2019-01-13T02:35:24.213Z,91.76
2019-01-13T02:38:32.937Z,91.71
2019-01-13T02:41:41.653Z,92.03
2019-01-13T02:44:31.121Z,92.03
2019-01-13T02:47:21.018Z,91.87
2019-01-13T02:50:12.595Z,92.02
2019-01-13T02:53:02.285Z,92.07
2019-01-13T02:55:52.713Z,92.06
2019-01-13T02:59:01.867Z,92.19
2019-01-13T03:01:51.555Z,92.19
2019-01-13T03:04:41.926Z,92.41
2019-01-13T03:07:31.979Z,92.31
2019-01-13T03:10:23.753Z,92.36
2019-01-13T03:13:13.013Z,92.38
2019-01-13T03:16:03.359Z,92.29
2019-01-13T03:18:52.873Z,91.97
2019-01-13T03:21:42.635Z,91.78
2019-01-13T03:24:32.980Z,91.85
2019-01-13T03:27:22.806Z,91.78
2019-01-13T03:30:33.304Z,91.57
2019-01-13T03:33:42.261Z,91.50
2019-01-13T03:36:31.708Z,91.50
2019-01-13T03:39:21.429Z,91.42
2019-01-13T03:42:11.254Z,91.50
2019-01-13T03:45:00.775Z,91.12
2019-01-13T03:47:50.626Z,91.20
2019-01-13T03:50:41.112Z,91.41
2019-01-13T03:53:31.232Z,91.41
2019-01-13T03:56:20.675Z,91.81
2019-01-13T03:59:10.962Z,92.24
2019-01-13T04:02:00.720Z,92.52
2019-01-13T04:04:50.784Z,92.69
2019-01-13T04:07:41.316Z,93.26
2019-01-13T04:10:31.476Z,93.47
2019-01-13T04:13:21.482Z,93.62
2019-01-13T04:16:30.948Z,93.82
2019-01-13T04:19:21.024Z,93.82
2019-01-13T04:22:10.572Z,93.41
2019-01-13T04:25:00.001Z,93.20
2019-01-13T04:27:49.503Z,93.20
2019-01-13T04:30:39.423Z,92.66
2019-01-13T04:33:29.210Z,92.33
2019-01-13T04:36:19.368Z,91.84
2019-01-13T04:39:09.050Z,91.90
2019-01-13T04:41:59.067Z,91.99
2019-01-13T04:44:49.147Z,91.78
2019-01-13T04:47:38.931Z,91.81
2019-01-13T04:50:28.714Z,91.64
2019-01-13T04:53:18.523Z,91.99
2019-01-13T04:56:08.113Z,91.60
2019-01-13T04:58:57.788Z,91.48
2019-01-13T05:01:47.858Z,91.48
2019-01-13T05:04:37.816Z,91.16
2019-01-13T05:07:28.255Z,91.29
2019-01-13T05:10:19.043Z,91.19
2019-01-13T05:13:08.556Z,91.39
2019-01-13T05:15:58.564Z,91.39
2019-01-13T05:18:48.497Z,91.38
2019-01-13T05:21:37.958Z,91.38
2019-01-13T05:24:27.660Z,91.44
2019-01-13T05:27:17.097Z,91.12
2019-01-13T05:30:10.528Z,91.13
2019-01-13T05:33:19.451Z,90.84
2019-01-13T05:36:09.435Z,90.84
2019-01-13T05:38:58.863Z,90.86
2019-01-13T05:41:48.314Z,90.60
2019-01-13T05:44:38.022Z,90.79
2019-01-13T05:47:27.782Z,90.48
2019-01-13T05:50:18.944Z,90.63
2019-01-13T05:53:08.870Z,90.66
2019-01-13T05:55:58.385Z,90.63
2019-01-13T06:02:16.331Z,90.24
2019-01-13T06:05:27.004Z,90.72
2019-01-13T06:08:16.440Z,90.64
2019-01-13T06:11:06.046Z,91.15
2019-01-13T06:13:55.832Z,91.15
2019-01-13T06:16:45.707Z,90.92
2019-01-13T06:19:35.491Z,91.09
2019-01-13T06:22:25.446Z,90.80
2019-01-13T06:25:15.856Z,90.75
2019-01-13T06:28:05.687Z,90.78
2019-01-13T06:30:55.915Z,91.14
2019-01-13T06:33:45.506Z,90.80
2019-01-13T06:36:35.917Z,90.64
2019-01-13T06:39:26.357Z,90.66
2019-01-13T06:42:35.079Z,91.04
2019-01-13T06:45:43.738Z,90.52
2019-01-13T06:48:33.420Z,90.52
2019-01-13T06:51:22.893Z,90.91
2019-01-13T06:54:13.031Z,91.06
2019-01-13T06:57:02.748Z,90.78
2019-01-13T06:59:52.190Z,91.04
2019-01-13T07:02:41.649Z,90.92
2019-01-13T07:05:31.626Z,90.97
2019-01-13T07:08:21.362Z,90.41
2019-01-13T07:11:10.962Z,89.95
2019-01-13T07:14:00.902Z,90.38
2019-01-13T07:17:09.693Z,90.17
2019-01-13T07:22:57.041Z,90.29
2019-01-13T07:26:06.345Z,90.39
2019-01-13T07:28:56.782Z,90.71
2019-01-13T07:31:46.671Z,90.59
2019-01-13T07:37:45.815Z,90.42
2019-01-13T07:40:35.768Z,90.43
2019-01-13T07:43:45.157Z,90.30
2019-01-13T07:46:35.147Z,90.23
2019-01-13T07:49:25.587Z,90.12
2019-01-13T07:52:15.444Z,90.29
2019-01-13T07:55:07.066Z,90.36
2019-01-13T07:57:56.845Z,90.29
2019-01-13T08:00:46.530Z,89.71
2019-01-13T08:03:37.079Z,89.41
2019-01-13T08:06:26.861Z,89.62
2019-01-13T08:09:16.559Z,89.36
2019-01-13T08:12:06.424Z,89.47
2019-01-13T08:14:56.380Z,89.70
2019-01-13T08:17:46.486Z,89.33
2019-01-13T08:20:35.996Z,89.35
2019-01-13T08:23:26.183Z,89.12
2019-01-13T08:26:35.239Z,89.28
2019-01-13T08:29:25.017Z,89.50
2019-01-13T08:32:14.862Z,89.50
2019-01-13T08:35:43.972Z,88.93
2019-01-13T08:38:33.651Z,88.95
2019-01-13T08:41:23.178Z,88.83
2019-01-13T08:44:12.915Z,88.70
2019-01-13T08:47:42.337Z,88.81
2019-01-13T08:50:32.421Z,88.99
2019-01-13T08:53:23.372Z,88.65
2019-01-13T08:56:12.693Z,88.63
2019-01-13T08:59:03.052Z,88.17
2019-01-13T09:01:52.732Z,88.06
2019-01-13T09:04:42.539Z,87.94
2019-01-13T09:07:32.331Z,87.72
2019-01-13T09:10:22.179Z,87.79
2019-01-13T09:13:12.533Z,87.62
2019-01-13T09:16:02.393Z,88.03
2019-01-13T09:18:52.706Z,87.65
2019-01-13T09:21:42.235Z,87.68
2019-01-13T09:24:31.923Z,87.12
2019-01-13T09:27:22.184Z,87.07
2019-01-13T09:30:15.234Z,87.36
2019-01-13T09:33:05.654Z,87.01
2019-01-13T09:35:56.458Z,86.95
2019-01-13T09:38:46.925Z,86.91
2019-01-13T09:41:36.854Z,86.39
2019-01-13T09:44:27.006Z,86.49
2019-01-13T09:47:16.429Z,86.13
2019-01-13T09:50:07.372Z,86.25
2019-01-13T09:52:57.027Z,86.15
2019-01-13T09:55:46.732Z,86.19
2019-01-13T09:58:37.849Z,86.28
2019-01-13T10:01:29.017Z,86.22
2019-01-13T10:04:37.724Z,86.18
2019-01-13T10:07:27.495Z,85.88
2019-01-13T10:10:17.748Z,85.74
2019-01-13T10:13:07.952Z,85.57
2019-01-13T10:15:57.919Z,85.63
2019-01-13T10:18:47.689Z,85.06
2019-01-13T10:21:38.610Z,85.65
2019-01-13T10:24:28.588Z,85.61
2019-01-13T10:27:18.942Z,85.21
2019-01-13T10:33:27.569Z,85.32
2019-01-13T10:36:17.397Z,85.97
2019-01-13T10:39:48.786Z,85.86
2019-01-13T10:42:37.796Z,85.74
2019-01-13T10:48:25.491Z,86.83
2019-01-13T10:51:54.782Z,87.21
2019-01-13T10:58:15.313Z,88.38
2019-01-13T11:01:24.034Z,88.66
2019-01-13T11:04:13.631Z,89.16
2019-01-13T11:07:03.403Z,89.15
2019-01-13T11:09:53.030Z,89.31
2019-01-13T11:12:42.904Z,89.58
2019-01-13T11:15:32.936Z,89.79
2019-01-13T11:18:22.631Z,89.82
2019-01-13T11:21:12.444Z,89.85
2019-01-13T11:24:02.541Z,89.85
2019-01-13T11:26:52.354Z,90.18
2019-01-13T11:29:42.328Z,90.23
2019-01-13T11:32:32.873Z,90.69
2019-01-13T11:35:41.881Z,90.55
2019-01-13T11:38:32.478Z,90.78
2019-01-13T11:41:22.068Z,90.94
2019-01-13T11:44:12.272Z,90.80
2019-01-13T11:47:02.325Z,91.01
2019-01-13T11:50:12.652Z,91.32
2019-01-13T11:53:02.801Z,91.39
2019-01-13T11:55:52.794Z,91.81
2019-01-13T11:58:42.323Z,92.07
2019-01-13T12:01:32.116Z,92.03
2019-01-13T12:04:40.779Z,91.67
2019-01-13T12:07:42.360Z,91.98
2019-01-13T12:10:32.594Z,91.98
2019-01-13T12:13:22.351Z,92.27
2019-01-13T12:16:12.265Z,92.13
2019-01-13T12:19:01.692Z,92.03
2019-01-13T12:21:51.216Z,92.31
2019-01-13T12:24:40.900Z,92.54
2019-01-13T12:27:31.114Z,92.58
2019-01-13T12:30:23.082Z,92.45
2019-01-13T12:33:13.010Z,92.37
2019-01-13T12:36:02.649Z,92.47
2019-01-13T12:38:52.468Z,92.38
2019-01-13T12:42:01.118Z,92.53
2019-01-13T12:44:50.645Z,92.57
2019-01-13T12:47:59.368Z,92.47
2019-01-13T12:51:08.272Z,92.37
2019-01-13T12:54:16.919Z,92.34
2019-01-13T12:57:25.757Z,92.09
2019-01-13T13:00:34.755Z,92.09
2019-01-13T13:03:31.416Z,92.11
2019-01-13T13:06:35.052Z,92.39
2019-01-13T13:09:24.808Z,92.39
2019-01-13T13:12:14.593Z,92.34
2019-01-13T13:15:05.130Z,92.32
2019-01-13T13:18:13.856Z,92.29
2019-01-13T13:21:04.101Z,92.29
2019-01-13T13:23:52.826Z,92.39
2019-01-13T13:26:42.423Z,92.51
2019-01-13T13:29:51.377Z,92.68
2019-01-13T13:32:41.233Z,92.68
2019-01-13T13:35:31.435Z,92.79
2019-01-13T13:38:21.428Z,92.72
2019-01-13T13:41:30.077Z,92.96
2019-01-13T13:44:20.723Z,92.96
2019-01-13T13:47:29.671Z,92.97
2019-01-13T13:50:39.665Z,93.20
2019-01-13T13:53:48.902Z,93.27
2019-01-13T13:56:57.855Z,93.27
2019-01-13T13:59:48.282Z,93.62
2019-01-13T14:02:38.866Z,93.28
2019-01-13T14:05:28.788Z,93.28
2019-01-13T14:08:18.229Z,93.13
2019-01-13T14:11:08.336Z,93.20
2019-01-13T14:13:59.168Z,93.73
2019-01-13T14:16:49.795Z,93.44
2019-01-13T14:19:39.528Z,93.45
2019-01-13T14:22:29.591Z,93.29
2019-01-13T14:25:40.448Z,93.25
2019-01-13T14:28:31.916Z,92.96
2019-01-13T14:31:24.736Z,92.96
2019-01-13T14:34:14.960Z,92.82
2019-01-13T14:37:05.181Z,92.70
2019-01-13T14:39:55.184Z,92.84
2019-01-13T14:43:04.377Z,93.02
2019-01-13T14:45:54.323Z,93.20
2019-01-13T14:48:44.476Z,93.24
2019-01-13T14:51:38.324Z,93.28
2019-01-13T14:54:47.013Z,93.18
2019-01-13T14:57:38.036Z,93.11
2019-01-13T15:00:31.187Z,93.14
2019-01-13T15:03:21.419Z,93.28
2019-01-13T15:06:11.916Z,93.29
2019-01-13T15:09:01.763Z,93.14
2019-01-13T15:11:51.392Z,92.98
2019-01-13T15:14:42.190Z,92.78
2019-01-13T15:17:32.091Z,92.74
2019-01-13T15:20:22.803Z,92.60
2019-01-13T15:23:12.367Z,92.46
2019-01-13T15:26:01.969Z,92.58
2019-01-13T15:28:51.432Z,92.75
2019-01-13T15:32:00.662Z,92.31
2019-01-13T15:35:09.695Z,92.12
2019-01-13T15:38:19.627Z,91.94
2019-01-13T15:41:09.851Z,91.78
2019-01-13T15:43:59.638Z,91.68
2019-01-13T15:46:50.848Z,91.61
2019-01-13T15:49:40.938Z,91.73
2019-01-13T15:52:30.843Z,91.93
2019-01-13T15:55:20.925Z,91.97
2019-01-13T15:58:10.681Z,91.96
2019-01-13T16:01:00.306Z,91.95
2019-01-13T16:03:50.925Z,92.13
2019-01-13T16:06:59.687Z,92.21
2019-01-13T16:10:01.687Z,92.17
2019-01-13T16:12:51.349Z,91.95
2019-01-13T16:16:00.613Z,92.04
2019-01-13T16:19:11.015Z,91.88
2019-01-13T16:22:00.872Z,91.83
2019-01-13T16:24:50.907Z,91.70
2019-01-13T16:27:42.098Z,91.89
2019-01-13T16:34:02.393Z,91.50
2019-01-13T16:43:42.937Z,91.15
2019-01-13T16:46:32.897Z,91.12
2019-01-13T16:49:22.646Z,91.09
2019-01-13T16:52:12.117Z,91.01
2019-01-13T16:55:02.709Z,91.21
2019-01-13T16:57:52.714Z,91.29
2019-01-13T17:00:42.751Z,91.26
2019-01-13T17:03:36.579Z,91.26
2019-01-13T17:06:26.556Z,90.94
2019-01-13T17:09:16.052Z,91.15
2019-01-13T17:12:08.216Z,90.78
2019-01-13T17:14:57.898Z,90.85
2019-01-13T17:17:47.392Z,90.40
2019-01-13T17:20:36.915Z,90.25
2019-01-13T17:23:26.601Z,90.34
2019-01-13T17:26:41.071Z,89.88
2019-01-13T17:29:50.968Z,89.72
2019-01-13T17:32:41.058Z,89.40
2019-01-13T17:35:30.730Z,89.60
2019-01-13T17:38:20.566Z,89.87
2019-01-13T17:41:10.815Z,90.12
2019-01-13T17:44:01.197Z,89.90
2019-01-13T17:46:51.199Z,89.97
2019-01-13T17:49:40.926Z,89.74
2019-01-13T17:52:50.111Z,89.67
2019-01-13T17:56:22.517Z,89.67
2019-01-13T17:59:16.096Z,89.60
2019-01-13T18:02:06.846Z,89.96
2019-01-13T18:04:56.371Z,89.42
2019-01-13T18:07:45.885Z,89.26
2019-01-13T18:10:47.327Z,88.93
2019-01-13T18:13:48.804Z,88.63
2019-01-13T18:16:38.485Z,88.62
2019-01-13T18:19:28.416Z,88.44
2019-01-13T18:22:16.879Z,88.16
2019-01-13T18:25:06.740Z,87.81
2019-01-13T18:27:56.187Z,87.79
2019-01-13T18:34:34.661Z,86.85
2019-01-13T18:37:24.102Z,86.85
2019-01-13T18:40:16.378Z,87.38
2019-01-13T18:43:05.453Z,87.16
2019-01-13T18:45:55.953Z,87.19
2019-01-13T18:48:44.730Z,87.43
2019-01-13T18:51:53.638Z,87.50
2019-01-13T18:54:43.561Z,87.50
2019-01-13T18:57:33.787Z,87.30
2019-01-13T19:00:24.097Z,87.20
2019-01-13T19:03:33.323Z,86.73
2019-01-13T19:06:42.333Z,87.04
2019-01-13T19:10:12.976Z,87.04
2019-01-13T19:13:09.015Z,86.90
2019-01-13T19:16:18.484Z,86.95
2019-01-13T19:19:28.279Z,86.63
2019-01-13T19:22:37.508Z,86.63
2019-01-13T19:25:46.251Z,86.50
2019-01-13T19:28:35.920Z,86.44
2019-01-13T19:31:25.403Z,87.04
2019-01-13T19:34:34.777Z,87.60
2019-01-13T19:37:24.540Z,87.60
2019-01-13T19:40:16.017Z,87.19
2019-01-13T19:43:05.949Z,87.12
2019-01-13T19:46:14.677Z,87.17
2019-01-13T19:49:04.979Z,87.18
2019-01-13T19:52:13.660Z,86.98
2019-01-13T19:58:20.093Z,87.11
2019-01-13T20:01:10.067Z,86.97
2019-01-13T20:04:18.815Z,86.91
2019-01-13T20:07:10.582Z,87.12
2019-01-13T20:10:01.933Z,87.28
2019-01-13T20:12:52.380Z,87.31
2019-01-13T20:15:42.159Z,87.26
2019-01-13T20:18:31.732Z,86.92
2019-01-13T20:21:21.596Z,87.37
2019-01-13T20:24:12.298Z,87.37
2019-01-13T20:27:02.179Z,87.24
2019-01-13T20:29:52.080Z,87.24
2019-01-13T20:32:41.851Z,87.64
2019-01-13T20:35:31.524Z,88.10
2019-01-13T20:38:21.271Z,88.10
2019-01-13T20:41:29.940Z,88.35
2019-01-13T20:44:19.875Z,88.35
2019-01-13T20:47:10.140Z,88.93
2019-01-13T20:50:19.357Z,89.62
2019-01-13T20:53:09.245Z,90.08
2019-01-13T20:56:18.193Z,90.29
2019-01-13T20:59:07.726Z,90.29
2019-01-13T21:01:57.353Z,90.46
2019-01-13T21:05:29.447Z,90.39
2019-01-13T21:08:19.150Z,90.25
2019-01-13T21:11:08.692Z,90.34
2019-01-13T21:13:58.573Z,90.38
2019-01-13T21:16:49.220Z,90.31
2019-01-13T21:19:39.659Z,90.61
2019-01-13T21:22:34.372Z,90.54
2019-01-13T21:25:24.215Z,90.49
2019-01-13T21:28:33.391Z,89.97
2019-01-13T21:34:20.039Z,89.45
2019-01-13T21:37:09.795Z,89.45
2019-01-13T21:39:59.769Z,89.23
2019-01-13T21:43:08.708Z,88.58
2019-01-13T21:45:58.292Z,88.58
2019-01-13T21:49:07.197Z,88.04
2019-01-13T21:51:57.206Z,88.04
2019-01-13T21:54:46.953Z,88.16
2019-01-13T21:57:36.932Z,88.46
2019-01-13T22:00:27.182Z,88.52
2019-01-13T22:03:17.128Z,88.53
2019-01-13T22:06:06.997Z,88.96
2019-01-13T22:08:57.509Z,89.23
2019-01-13T22:11:46.960Z,89.37
2019-01-13T22:14:36.382Z,89.28
2019-01-13T22:17:26.162Z,89.27
2019-01-13T22:20:56.348Z,88.95
2019-01-13T22:23:46.296Z,89.31
2019-01-13T22:26:38.560Z,89.60
2019-01-13T22:29:28.024Z,89.60
2019-01-13T22:32:36.937Z,89.40
2019-01-13T22:35:26.805Z,89.40
2019-01-13T22:38:16.390Z,89.98
2019-01-13T22:41:06.364Z,90.43
2019-01-13T22:43:57.761Z,90.69
2019-01-13T22:46:47.795Z,90.88
2019-01-13T22:49:38.461Z,90.91
2019-01-13T22:52:28.395Z,90.93
2019-01-13T22:55:18.795Z,90.91
2019-01-13T22:58:08.256Z,90.75
2019-01-13T23:01:37.808Z,90.72
2019-01-13T23:04:28.011Z,90.65
2019-01-13T23:07:18.836Z,90.43
2019-01-13T23:10:09.041Z,89.88
2019-01-13T23:12:58.488Z,89.85
2019-01-13T23:15:48.664Z,89.60
2019-01-13T23:18:38.200Z,89.42
2019-01-13T23:21:28.460Z,89.42
2019-01-13T23:24:19.444Z,89.28
2019-01-13T23:27:09.668Z,89.05
2019-01-13T23:30:18.817Z,89.02
2019-01-13T23:33:09.614Z,89.02
2019-01-13T23:36:18.640Z,88.72
2019-01-13T23:39:09.958Z,89.01
2019-01-13T23:42:19.381Z,89.03
2019-01-13T23:45:09.638Z,89.03
2019-01-13T23:48:00.243Z,89.31
2019-01-13T23:50:51.097Z,89.75
2019-01-13T23:53:40.733Z,89.97
2019-01-13T23:56:31.107Z,90.12
2019-01-13T23:59:39.918Z,90.43
